Clay Hill, Texas
Current Conditions -  °F | °C
As of 10:55 AM on Thursday 23 Oct 2014 (Local Time) from KLXY Reporting Station
Clear Clear  
Wind Chill: 65°   Ceiling: Unl
Heat Index: 65°   Visibility: 10mi
Dew Point: 55°   Wind: 5mph
Humidity: 69%   Direction: 120°ESE
Pressure: 30.17"   Gusts: NA
Location:  31.6463°N, 96.2786°W
Report Text: KLXY 231555Z AUTO 12004KT 10SM CLR 19/13 A3017 RMK AO2 T01850128
Loading
Personal Weather Stations






























Interactive Weather Map
Tropical Storm Tracking
New forecast layout! Learn more

10-Day Weather Forecast

Advertisements
Track Severe Weather on mobile